createdAt,value
2023-03-05T00:01:33.567Z,21.90
2023-03-05T00:04:03.955Z,20.30
2023-03-05T00:06:33.467Z,21.90
2023-03-05T00:09:01.874Z,21.10
2023-03-05T00:11:31.898Z,21.20
2023-03-05T00:14:03.632Z,25.60
2023-03-05T00:16:32.415Z,23.00
2023-03-05T00:19:01.758Z,22.60
2023-03-05T00:21:32.693Z,30.50
2023-03-05T00:26:31.390Z,32.60
2023-03-05T00:28:59.485Z,34.70
2023-03-05T00:31:30.787Z,30.10
2023-03-05T00:34:01.694Z,27.20
2023-03-05T00:36:30.618Z,31.10
2023-03-05T00:38:59.114Z,29.10
2023-03-05T00:41:27.763Z,28.10
2023-03-05T00:43:56.234Z,27.70
2023-03-05T00:46:24.808Z,30.10
2023-03-05T00:48:53.519Z,27.00
2023-03-05T00:51:21.976Z,24.00
2023-03-05T00:53:50.054Z,24.30
2023-03-05T00:56:18.146Z,24.80
2023-03-05T00:58:46.409Z,20.70
2023-03-05T01:01:15.331Z,23.40
2023-03-05T01:03:43.512Z,22.40
2023-03-05T01:06:13.792Z,22.60
2023-03-05T01:08:42.583Z,22.70
2023-03-05T01:11:11.919Z,21.80
2023-03-05T01:13:40.437Z,21.40
2023-03-05T01:16:09.149Z,26.80
2023-03-05T01:18:38.643Z,23.90
2023-03-05T01:21:06.926Z,23.30
2023-03-05T01:23:37.479Z,25.00
2023-03-05T01:26:05.881Z,20.10
2023-03-05T01:28:34.561Z,23.80
2023-03-05T01:31:02.734Z,25.60
2023-03-05T01:33:30.879Z,22.60
2023-03-05T01:35:58.954Z,24.60
2023-03-05T01:38:27.157Z,24.70
2023-03-05T01:40:55.247Z,25.30
2023-03-05T01:43:30.048Z,23.90
2023-03-05T01:46:16.984Z,23.40
2023-03-05T01:48:52.684Z,26.90
2023-03-05T01:51:24.334Z,22.90
2023-03-05T01:53:54.003Z,23.30
2023-03-05T01:56:22.313Z,25.70
2023-03-05T01:58:52.123Z,25.20
2023-03-05T02:01:20.323Z,25.80
2023-03-05T02:03:48.771Z,23.00
2023-03-05T02:06:16.956Z,23.80
2023-03-05T02:08:45.049Z,24.50
2023-03-05T02:11:13.095Z,23.00
2023-03-05T02:13:41.189Z,24.70
2023-03-05T02:16:09.839Z,20.40
2023-03-05T02:18:37.971Z,26.60
2023-03-05T02:21:10.340Z,26.90
2023-03-05T02:23:39.488Z,24.50
2023-03-05T02:26:10.242Z,23.00
2023-03-05T02:28:59.669Z,22.60
2023-03-05T02:31:28.162Z,21.60
2023-03-05T02:33:56.402Z,23.00
2023-03-05T02:36:25.066Z,23.70
2023-03-05T02:38:53.880Z,23.00
2023-03-05T02:41:21.911Z,23.20
2023-03-05T02:43:49.956Z,23.40
2023-03-05T02:46:18.247Z,21.70
2023-03-05T02:48:46.414Z,22.00
2023-03-05T02:51:15.082Z,26.30
2023-03-05T02:53:43.121Z,22.80
2023-03-05T02:56:11.198Z,22.10
2023-03-05T02:58:39.269Z,22.10
2023-03-05T03:01:09.295Z,26.20
2023-03-05T03:03:37.452Z,23.40
2023-03-05T03:06:06.011Z,24.10
2023-03-05T03:08:34.086Z,24.20
2023-03-05T03:11:07.506Z,26.10
2023-03-05T03:13:35.994Z,27.60
2023-03-05T03:16:10.556Z,27.20
2023-03-05T03:18:38.956Z,26.70
2023-03-05T03:21:07.680Z,26.00
2023-03-05T03:23:35.920Z,26.30
2023-03-05T03:26:03.990Z,25.60
2023-03-05T03:28:32.032Z,29.00
2023-03-05T03:31:00.175Z,22.60
2023-03-05T03:33:28.297Z,25.90
2023-03-05T03:35:56.462Z,24.10
2023-03-05T03:38:24.550Z,25.10
2023-03-05T03:40:52.696Z,26.80
2023-03-05T03:43:20.837Z,24.20
2023-03-05T03:45:48.988Z,28.00
2023-03-05T03:48:17.224Z,24.90
2023-03-05T03:50:45.359Z,24.30
2023-03-05T03:53:14.490Z,24.80
2023-03-05T03:55:43.162Z,23.60
2023-03-05T03:58:11.273Z,24.90
2023-03-05T04:00:40.556Z,30.30
2023-03-05T04:03:09.440Z,25.10
2023-03-05T04:05:37.463Z,24.50
2023-03-05T04:08:08.578Z,24.00
2023-03-05T04:10:36.645Z,29.30
2023-03-05T04:13:04.697Z,24.40
2023-03-05T04:15:33.424Z,28.10
2023-03-05T04:18:01.652Z,31.20
2023-03-05T04:20:29.833Z,24.20
2023-03-05T04:22:57.946Z,25.50
2023-03-05T04:25:26.065Z,24.50
2023-03-05T04:27:54.177Z,25.60
2023-03-05T04:30:22.407Z,24.20
2023-03-05T04:32:50.376Z,21.40
2023-03-05T04:35:19.283Z,22.50
2023-03-05T04:37:47.529Z,22.70
2023-03-05T04:40:16.074Z,25.50
2023-03-05T04:42:44.567Z,22.20
2023-03-05T04:45:13.035Z,22.90
2023-03-05T04:47:41.203Z,23.70
2023-03-05T04:50:10.903Z,24.00
2023-03-05T04:52:43.574Z,22.50
2023-03-05T04:55:14.021Z,21.20
2023-03-05T04:57:42.318Z,24.90
2023-03-05T05:00:14.518Z,25.10
2023-03-05T05:02:47.620Z,26.20
2023-03-05T05:05:19.314Z,26.30
2023-03-05T05:07:47.591Z,24.90
2023-03-05T05:10:16.456Z,25.50
2023-03-05T05:12:44.618Z,24.70
2023-03-05T05:15:13.467Z,25.10
2023-03-05T05:17:41.517Z,23.50
2023-03-05T05:20:11.736Z,27.80
2023-03-05T05:22:40.378Z,24.50
2023-03-05T05:25:08.979Z,27.40
2023-03-05T05:27:38.674Z,27.50
2023-03-05T05:30:07.870Z,26.10
2023-03-05T05:32:36.043Z,24.50
2023-03-05T05:35:04.426Z,24.30
2023-03-05T05:37:32.574Z,24.80
2023-03-05T05:40:00.760Z,25.70
2023-03-05T05:42:29.677Z,22.80
2023-03-05T05:44:57.742Z,26.70
2023-03-05T05:47:26.133Z,21.70
2023-03-05T05:49:54.254Z,25.10
2023-03-05T05:52:22.445Z,24.50
2023-03-05T05:54:50.602Z,23.50
2023-03-05T05:57:18.708Z,24.20
2023-03-05T05:59:46.755Z,20.80
2023-03-05T06:02:14.943Z,20.60
2023-03-05T06:04:43.027Z,20.40
2023-03-05T06:07:11.058Z,18.80
2023-03-05T06:09:39.116Z,23.90
2023-03-05T06:12:07.839Z,20.80
2023-03-05T06:14:36.075Z,21.90
2023-03-05T06:17:04.164Z,23.10
2023-03-05T06:19:32.435Z,23.40
2023-03-05T06:22:00.550Z,21.40
2023-03-05T06:24:28.757Z,20.10
2023-03-05T06:26:56.856Z,21.30
2023-03-05T06:29:24.982Z,20.00
2023-03-05T06:31:53.094Z,20.20
2023-03-05T06:34:21.355Z,19.60
2023-03-05T06:36:50.087Z,16.80
2023-03-05T06:39:18.477Z,20.10
2023-03-05T06:41:46.803Z,17.20
2023-03-05T06:44:14.864Z,21.00
2023-03-05T06:46:43.072Z,17.80
2023-03-05T06:49:11.935Z,17.10
2023-03-05T06:51:40.754Z,18.10
2023-03-05T06:54:12.591Z,17.40
2023-03-05T06:56:43.801Z,22.30
2023-03-05T06:59:14.483Z,19.20
2023-03-05T07:01:43.606Z,17.70
2023-03-05T07:04:12.835Z,16.20
2023-03-05T07:06:42.372Z,14.90
2023-03-05T07:09:15.655Z,16.20
2023-03-05T07:11:43.915Z,19.40
2023-03-05T07:14:12.217Z,19.10
2023-03-05T07:16:40.347Z,17.60
2023-03-05T07:19:11.024Z,17.60
2023-03-05T07:21:40.145Z,18.30
2023-03-05T07:24:08.949Z,19.20
2023-03-05T07:26:37.383Z,19.40
2023-03-05T07:29:05.807Z,16.70
2023-03-05T07:31:34.142Z,16.90
2023-03-05T07:34:03.436Z,18.30
2023-03-05T07:36:31.634Z,20.10
2023-03-05T07:38:59.719Z,18.20
2023-03-05T07:41:27.901Z,18.70
2023-03-05T07:43:56.246Z,18.90
2023-03-05T07:46:28.204Z,16.90
2023-03-05T07:48:56.798Z,17.10
2023-03-05T07:51:27.065Z,18.40
2023-03-05T07:53:57.671Z,16.00
2023-03-05T07:56:36.333Z,20.90
2023-03-05T07:59:07.407Z,16.30
2023-03-05T08:01:36.080Z,12.60
2023-03-05T08:04:05.904Z,16.60
2023-03-05T08:06:34.026Z,13.10
2023-03-05T08:09:02.128Z,13.90
2023-03-05T08:11:30.284Z,11.90
2023-03-05T08:13:59.707Z,14.20
2023-03-05T08:16:28.359Z,12.50
2023-03-05T08:18:58.332Z,15.00
2023-03-05T08:21:34.783Z,14.10
2023-03-05T08:24:05.547Z,14.50
2023-03-05T08:26:37.767Z,21.00
2023-03-05T08:29:09.678Z,15.70
2023-03-05T08:31:38.033Z,13.40
2023-03-05T08:34:07.141Z,14.10
2023-03-05T08:36:35.419Z,13.90
2023-03-05T08:39:06.978Z,12.90
2023-03-05T08:41:35.296Z,10.70
2023-03-05T08:44:04.193Z,11.40
2023-03-05T08:46:32.811Z,11.90
2023-03-05T08:49:01.309Z,11.30
2023-03-05T08:51:29.663Z,10.10
2023-03-05T08:53:59.836Z,10.10
2023-03-05T08:56:31.303Z,12.30
2023-03-05T08:58:59.606Z,9.60
2023-03-05T09:01:28.261Z,11.20
2023-03-05T09:03:56.790Z,12.50
2023-03-05T09:06:25.503Z,11.70
2023-03-05T09:08:54.469Z,12.20
2023-03-05T09:11:22.885Z,12.60
2023-03-05T09:13:51.022Z,10.90
2023-03-05T09:16:20.546Z,11.40
2023-03-05T09:18:48.655Z,9.70
2023-03-05T09:21:18.237Z,10.20
2023-03-05T09:23:49.744Z,10.30
2023-03-05T09:26:21.447Z,10.90
2023-03-05T09:28:49.584Z,9.90
2023-03-05T09:31:18.360Z,14.10
2023-03-05T09:33:48.731Z,9.70
2023-03-05T09:36:28.880Z,9.70
2023-03-05T09:38:56.956Z,10.50
2023-03-05T09:41:47.594Z,8.90
2023-03-05T09:44:27.959Z,10.30
2023-03-05T09:47:00.530Z,10.30
2023-03-05T09:49:57.246Z,9.40
2023-03-05T09:52:45.438Z,10.30
2023-03-05T09:55:26.630Z,10.40
2023-03-05T09:57:58.722Z,9.00
2023-03-05T10:00:39.013Z,10.70
2023-03-05T10:03:20.121Z,10.30
2023-03-05T10:05:51.144Z,13.40
2023-03-05T10:08:24.684Z,11.40
2023-03-05T10:10:54.321Z,8.70
2023-03-05T10:13:24.880Z,11.30
2023-03-05T10:16:30.300Z,11.10
2023-03-05T10:18:58.286Z,10.80
2023-03-05T10:21:48.564Z,8.50
2023-03-05T10:24:30.689Z,9.80
2023-03-05T10:27:07.932Z,8.40
2023-03-05T10:29:42.132Z,9.40
2023-03-05T10:32:47.538Z,7.80
2023-03-05T10:35:41.786Z,8.60
2023-03-05T10:38:32.824Z,10.40
2023-03-05T10:43:54.771Z,9.20
2023-03-05T10:46:30.006Z,11.60
2023-03-05T10:49:02.975Z,9.20
2023-03-05T10:51:36.407Z,8.20
2023-03-05T10:54:09.487Z,12.40
2023-03-05T10:56:37.629Z,11.40
2023-03-05T10:59:05.811Z,7.70
2023-03-05T11:01:34.083Z,12.00
2023-03-05T11:04:21.864Z,10.60
2023-03-05T11:06:50.669Z,23.90
2023-03-05T11:09:27.977Z,9.80
2023-03-05T11:12:19.602Z,8.50
2023-03-05T11:15:15.054Z,8.60
2023-03-05T11:17:49.195Z,8.80
2023-03-05T11:20:31.709Z,8.10
2023-03-05T11:23:06.148Z,8.80
2023-03-05T11:25:35.642Z,8.20
2023-03-05T11:28:04.542Z,8.80
2023-03-05T11:30:35.828Z,10.20
2023-03-05T11:33:15.962Z,10.00
2023-03-05T11:35:44.673Z,8.80
2023-03-05T11:38:24.683Z,9.10
2023-03-05T11:40:55.690Z,10.00
2023-03-05T11:43:26.006Z,9.30
2023-03-05T11:45:59.137Z,8.90
2023-03-05T11:48:32.517Z,9.60
2023-03-05T11:51:02.812Z,8.90
2023-03-05T11:53:37.235Z,8.90
2023-03-05T11:56:27.077Z,8.70
2023-03-05T11:59:02.184Z,10.60
2023-03-05T12:01:34.476Z,10.50
2023-03-05T12:04:05.044Z,9.20
2023-03-05T12:06:41.178Z,10.40
2023-03-05T12:09:16.509Z,8.20
2023-03-05T12:11:45.681Z,9.30
2023-03-05T12:14:22.505Z,7.60
2023-03-05T12:17:02.600Z,6.10
2023-03-05T12:19:35.772Z,8.70
2023-03-05T12:22:05.380Z,10.50
2023-03-05T12:24:36.480Z,7.70
2023-03-05T12:27:04.741Z,10.90
2023-03-05T12:29:46.650Z,7.90
2023-03-05T12:32:28.989Z,11.40
2023-03-05T12:35:23.966Z,11.10
2023-03-05T12:37:51.985Z,9.20
2023-03-05T12:40:24.393Z,9.30
2023-03-05T12:43:19.763Z,9.60
2023-03-05T12:45:47.856Z,10.60
2023-03-05T12:48:15.946Z,9.90
2023-03-05T12:50:45.155Z,8.50
2023-03-05T12:53:16.991Z,9.60
2023-03-05T12:55:47.915Z,9.40
2023-03-05T12:58:40.346Z,9.40
2023-03-05T13:01:11.525Z,8.70
2023-03-05T13:03:50.812Z,8.10
2023-03-05T13:06:34.244Z,9.10
2023-03-05T13:09:09.144Z,8.70
2023-03-05T13:11:39.376Z,10.50
2023-03-05T13:14:25.465Z,8.70
2023-03-05T13:16:53.648Z,11.40
2023-03-05T13:19:22.850Z,7.90
2023-03-05T13:22:03.284Z,10.30
2023-03-05T13:24:31.716Z,10.90
2023-03-05T13:26:59.858Z,9.20
2023-03-05T13:29:28.618Z,7.60
2023-03-05T13:32:19.009Z,9.40
2023-03-05T13:34:48.228Z,9.30
2023-03-05T13:37:20.474Z,8.60
2023-03-05T13:39:50.339Z,11.10
2023-03-05T13:42:28.696Z,9.80
2023-03-05T13:45:20.499Z,9.30
2023-03-05T13:48:00.135Z,9.90
2023-03-05T13:50:31.878Z,10.70
2023-03-05T13:53:24.438Z,8.70
2023-03-05T13:55:56.835Z,10.20
2023-03-05T13:58:56.636Z,11.00
2023-03-05T14:01:32.309Z,8.70
2023-03-05T14:04:15.627Z,11.50
2023-03-05T14:06:52.300Z,9.80
2023-03-05T14:09:28.322Z,10.40
2023-03-05T14:12:16.631Z,14.20
2023-03-05T14:14:45.212Z,10.80
2023-03-05T14:17:43.492Z,10.40
2023-03-05T14:20:11.579Z,9.20
2023-03-05T14:22:45.450Z,11.80
2023-03-05T14:25:35.135Z,11.20
2023-03-05T14:28:18.299Z,12.50
2023-03-05T14:30:47.921Z,10.70
2023-03-05T14:33:24.290Z,12.30
2023-03-05T14:35:52.975Z,11.50
2023-03-05T14:38:28.992Z,10.50
2023-03-05T14:40:57.693Z,12.10
2023-03-05T14:43:25.848Z,10.00
2023-03-05T14:45:54.049Z,15.50
2023-03-05T14:48:22.135Z,10.70
2023-03-05T14:50:57.204Z,11.70
2023-03-05T14:53:35.951Z,11.90
2023-03-05T14:56:04.246Z,12.70
2023-03-05T14:58:35.688Z,12.80
2023-03-05T15:01:04.046Z,12.70
2023-03-05T15:03:33.192Z,13.50
2023-03-05T15:06:01.897Z,11.60
2023-03-05T15:08:32.542Z,12.40
2023-03-05T15:11:01.360Z,10.80
2023-03-05T15:13:30.064Z,11.50
2023-03-05T15:15:59.208Z,13.90
2023-03-05T15:18:27.689Z,12.10
2023-03-05T15:20:57.363Z,16.30
2023-03-05T15:23:26.021Z,12.80
2023-03-05T15:25:54.279Z,11.10
2023-03-05T15:28:22.648Z,11.00
2023-03-05T15:30:50.798Z,12.60
2023-03-05T15:33:19.323Z,12.00
2023-03-05T15:35:47.876Z,11.10
2023-03-05T15:38:16.329Z,12.20
2023-03-05T15:40:45.109Z,10.40
2023-03-05T15:43:13.708Z,10.70
2023-03-05T15:45:41.914Z,10.40
2023-03-05T15:48:10.251Z,12.00
2023-03-05T15:50:43.059Z,12.90
2023-03-05T15:53:13.506Z,10.20
2023-03-05T15:55:43.794Z,9.90
2023-03-05T15:58:17.335Z,10.30
2023-03-05T16:00:47.544Z,10.80
2023-03-05T16:03:15.831Z,11.90
2023-03-05T16:05:44.077Z,11.10
2023-03-05T16:08:12.254Z,10.10
2023-03-05T16:10:41.077Z,13.80
2023-03-05T16:13:13.625Z,11.10
2023-03-05T16:15:43.287Z,9.80
2023-03-05T16:18:14.472Z,9.20
2023-03-05T16:20:42.696Z,10.00
2023-03-05T16:23:11.222Z,10.60
2023-03-05T16:25:39.733Z,12.60
2023-03-05T16:28:07.861Z,11.30
2023-03-05T16:30:36.147Z,10.30
2023-03-05T16:33:04.345Z,11.70
2023-03-05T16:35:32.988Z,11.40
2023-03-05T16:38:01.563Z,9.50
2023-03-05T16:40:44.301Z,10.60
2023-03-05T16:43:17.797Z,12.40
2023-03-05T16:45:45.847Z,13.40
2023-03-05T16:48:13.879Z,11.20
2023-03-05T16:50:41.927Z,12.40
2023-03-05T16:53:10.084Z,14.60
2023-03-05T16:55:38.285Z,11.00
2023-03-05T16:58:06.457Z,12.50
2023-03-05T17:00:35.107Z,10.10
2023-03-05T17:03:04.168Z,11.70
2023-03-05T17:05:35.180Z,11.00
2023-03-05T17:08:04.397Z,12.80
2023-03-05T17:10:33.671Z,12.00
2023-03-05T17:13:01.801Z,13.50
2023-03-05T17:15:29.897Z,11.70
2023-03-05T17:17:58.025Z,12.00
2023-03-05T17:20:26.073Z,10.90
2023-03-05T17:22:54.529Z,10.00
2023-03-05T17:25:22.764Z,13.00
2023-03-05T17:27:51.423Z,10.70
2023-03-05T17:30:19.780Z,11.50
2023-03-05T17:32:47.864Z,11.20
2023-03-05T17:35:21.643Z,12.10
2023-03-05T17:37:51.133Z,11.90
2023-03-05T17:40:19.251Z,11.90
2023-03-05T17:42:47.805Z,11.20
2023-03-05T17:45:16.125Z,10.80
2023-03-05T17:47:44.373Z,11.40
2023-03-05T17:50:14.019Z,11.10
2023-03-05T17:52:42.102Z,10.20
2023-03-05T17:55:12.291Z,11.00
2023-03-05T17:57:42.551Z,10.10
2023-03-05T18:00:13.956Z,10.90
2023-03-05T18:02:42.197Z,10.90
2023-03-05T18:05:11.015Z,12.70
2023-03-05T18:07:39.929Z,9.50
2023-03-05T18:10:09.679Z,10.10
2023-03-05T18:12:37.908Z,10.30
2023-03-05T18:15:08.526Z,8.70
2023-03-05T18:17:36.811Z,8.10
2023-03-05T18:20:06.204Z,8.80
2023-03-05T18:22:34.450Z,8.40
2023-03-05T18:25:02.627Z,10.00
2023-03-05T18:27:31.299Z,8.60
2023-03-05T18:29:59.565Z,7.00
2023-03-05T18:32:29.255Z,7.80
2023-03-05T18:34:57.390Z,8.20
2023-03-05T18:37:25.532Z,7.10
2023-03-05T18:39:53.644Z,7.00
2023-03-05T18:42:21.745Z,8.10
2023-03-05T18:44:49.934Z,6.60
2023-03-05T18:47:18.117Z,7.20
2023-03-05T18:49:46.248Z,7.50
2023-03-05T18:52:14.260Z,6.00
2023-03-05T18:54:42.377Z,6.70
2023-03-05T18:57:10.397Z,7.60
2023-03-05T18:59:38.514Z,7.40
2023-03-05T19:02:14.325Z,8.90
2023-03-05T19:04:43.380Z,6.30
2023-03-05T19:07:11.684Z,6.20
2023-03-05T19:09:59.774Z,7.90
2023-03-05T19:12:34.267Z,7.90
2023-03-05T19:15:02.895Z,7.30
2023-03-05T19:17:32.448Z,7.80
2023-03-05T19:20:00.619Z,9.20
2023-03-05T19:22:29.661Z,10.00
2023-03-05T19:24:57.750Z,7.60
2023-03-05T19:27:26.827Z,8.90
2023-03-05T19:29:55.404Z,9.90
2023-03-05T19:32:24.149Z,8.60
2023-03-05T19:34:56.047Z,9.00
2023-03-05T19:37:25.967Z,9.00
2023-03-05T19:39:54.413Z,11.00
2023-03-05T19:42:22.497Z,7.40
2023-03-05T19:44:50.994Z,7.40
2023-03-05T19:47:19.507Z,10.90
2023-03-05T19:49:47.668Z,7.40
2023-03-05T19:52:15.813Z,11.30
2023-03-05T19:54:43.931Z,7.10
2023-03-05T19:57:11.988Z,9.90
2023-03-05T19:59:40.091Z,8.00
2023-03-05T20:02:12.087Z,11.00
2023-03-05T20:04:40.461Z,12.30
2023-03-05T20:07:10.548Z,10.80
2023-03-05T20:09:38.795Z,9.80
2023-03-05T20:12:07.879Z,8.70
2023-03-05T20:14:36.065Z,10.70
2023-03-05T20:17:04.422Z,10.70
2023-03-05T20:19:32.785Z,11.60
2023-03-05T20:22:00.976Z,8.90
2023-03-05T20:24:29.163Z,10.00
2023-03-05T20:26:57.425Z,9.60
2023-03-05T20:29:25.724Z,8.60
2023-03-05T20:31:56.589Z,9.40
2023-03-05T20:36:53.272Z,9.80
2023-03-05T20:39:21.534Z,8.70
2023-03-05T20:41:51.325Z,9.60
2023-03-05T20:44:19.449Z,9.40
2023-03-05T20:47:41.091Z,11.00
2023-03-05T20:50:10.381Z,9.30
2023-03-05T20:52:39.427Z,9.10
2023-03-05T20:55:09.376Z,12.20
2023-03-05T20:57:37.614Z,10.10
2023-03-05T21:00:06.813Z,10.40
2023-03-05T21:02:34.991Z,10.30
2023-03-05T21:05:03.200Z,11.50
2023-03-05T21:07:31.486Z,11.60
2023-03-05T21:09:59.546Z,14.80
2023-03-05T21:12:27.729Z,11.40
2023-03-05T21:14:55.901Z,11.00
2023-03-05T21:17:24.026Z,10.00
2023-03-05T21:19:53.552Z,13.60
2023-03-05T21:22:21.712Z,12.00
2023-03-05T21:25:23.514Z,11.90
2023-03-05T21:28:06.936Z,11.80
2023-03-05T21:30:43.805Z,14.50
2023-03-05T21:33:15.192Z,12.60
2023-03-05T21:35:44.240Z,11.80
2023-03-05T21:38:14.397Z,13.40
2023-03-05T21:40:45.788Z,17.10
2023-03-05T21:43:15.743Z,11.00
2023-03-05T21:45:46.745Z,11.40
2023-03-05T21:48:16.034Z,11.90
2023-03-05T21:50:45.538Z,10.10
2023-03-05T21:53:15.763Z,15.30
2023-03-05T21:56:26.499Z,13.90
2023-03-05T21:58:54.691Z,12.00
2023-03-05T22:01:23.293Z,12.70
2023-03-05T22:03:51.604Z,12.60
2023-03-05T22:06:20.327Z,14.70
2023-03-05T22:08:49.017Z,11.50
2023-03-05T22:11:18.946Z,14.00
2023-03-05T22:13:47.074Z,11.50
2023-03-05T22:16:23.756Z,11.70
2023-03-05T22:18:52.431Z,10.10
2023-03-05T22:21:27.102Z,10.00
2023-03-05T22:23:57.346Z,10.60
2023-03-05T22:26:27.248Z,7.50
2023-03-05T22:28:55.360Z,11.80
2023-03-05T22:31:25.588Z,11.20
2023-03-05T22:33:54.538Z,12.40
2023-03-05T22:36:23.861Z,7.90
2023-03-05T22:38:52.307Z,8.80
2023-03-05T22:41:21.353Z,10.50
2023-03-05T22:43:50.374Z,11.00
2023-03-05T22:46:25.871Z,8.40
2023-03-05T22:48:54.682Z,8.20
2023-03-05T22:51:22.808Z,9.90
2023-03-05T22:53:50.977Z,8.10
2023-03-05T22:56:20.254Z,9.20
2023-03-05T22:58:48.638Z,12.40
2023-03-05T23:01:22.617Z,8.30
2023-03-05T23:04:37.769Z,8.90
2023-03-05T23:07:06.846Z,8.30
2023-03-05T23:09:34.944Z,9.10
2023-03-05T23:12:03.031Z,11.40
2023-03-05T23:14:31.187Z,10.40
2023-03-05T23:16:59.263Z,9.40
2023-03-05T23:19:27.310Z,9.00
2023-03-05T23:21:55.452Z,11.30
2023-03-05T23:24:23.543Z,11.90
2023-03-05T23:26:51.583Z,14.20
2023-03-05T23:30:22.945Z,13.80
2023-03-05T23:35:31.957Z,13.30
2023-03-05T23:38:01.812Z,20.50
2023-03-05T23:40:33.101Z,14.50
2023-03-05T23:43:01.449Z,13.00
2023-03-05T23:45:30.210Z,13.80
2023-03-05T23:47:58.802Z,10.50
2023-03-05T23:50:30.513Z,13.00
2023-03-05T23:53:02.025Z,11.00
2023-03-05T23:55:34.084Z,13.00
2023-03-05T23:58:03.070Z,10.00
